Time;durP1;ratioP1;P1;durP2;ratioP2;P2;SDS_P1;SDS_P2;PMS_P1;PMS_P2;Temp;Humidity;BMP_temperature;BMP_pressure;BME280_temperature;BME280_humidity;BME280_pressure;Samples;Min_cycle;Max_cycle;Signal;HPM_P1;HPM_P2
2022/01/07 00:01:52;;;;;;;5.72;3.83;;;;;;;;;;5091463;28;20246;-80
2022/01/07 00:04:18;;;;;;;4.97;3.50;;;;;;;;;;5137474;27;20190;-80
2022/01/07 00:06:44;;;;;;;6.13;3.90;;;;;;;;;;5133142;27;20180;-81
2022/01/07 00:09:11;;;;;;;6.00;3.63;;;;;;;;;;5123236;27;20192;-81
2022/01/07 00:11:37;;;;;;;3.25;2.45;;;;;;;;;;5110482;28;20175;-82
2022/01/07 00:14:03;;;;;;;6.20;4.03;;;;;;;;;;5093870;28;20175;-81
2022/01/07 00:16:29;;;;;;;4.75;3.47;;;;;;;;;;5120894;27;20183;-82
2022/01/07 00:18:56;;;;;;;5.53;3.35;;;;;;;;;;5125730;27;20255;-82
2022/01/07 00:21:22;;;;;;;8.63;4.30;;;;;;;;;;5109949;28;20211;-82
2022/01/07 00:23:48;;;;;;;5.95;3.83;;;;;;;;;;5095501;28;20186;-80
2022/01/07 00:26:14;;;;;;;7.68;3.50;;;;;;;;;;5136695;27;20180;-81
2022/01/07 00:28:40;;;;;;;4.22;3.45;;;;;;;;;;5088419;28;20186;-86
2022/01/07 00:31:06;;;;;;;10.68;3.58;;;;;;;;;;5109955;28;20172;-81
2022/01/07 00:33:32;;;;;;;7.43;4.05;;;;;;;;;;5109821;28;20765;-80
2022/01/07 00:35:59;;;;;;;4.00;2.97;;;;;;;;;;5093672;28;20184;-82
2022/01/07 00:38:25;;;;;;;8.60;4.20;;;;;;;;;;5121228;27;20184;-81
2022/01/07 00:40:51;;;;;;;4.88;3.70;;;;;;;;;;5123044;27;20210;-83
2022/01/07 00:43:17;;;;;;;8.52;4.70;;;;;;;;;;5121657;28;20179;-83
2022/01/07 00:45:43;;;;;;;7.25;3.30;;;;;;;;;;5119874;28;20198;-83
2022/01/07 00:48:09;;;;;;;5.32;3.90;;;;;;;;;;5112499;28;20653;-83
2022/01/07 00:50:35;;;;;;;6.15;4.60;;;;;;;;;;5124824;27;20210;-84
2022/01/07 00:53:01;;;;;;;7.25;4.65;;;;;;;;;;5092974;28;20171;-82
2022/01/07 00:55:27;;;;;;;7.35;5.20;;;;;;;;;;5121791;27;20200;-81
2022/01/07 00:57:54;;;;;;;5.15;4.38;;;;;;;;;;5138271;27;20178;-84
2022/01/07 01:00:21;;;;;;;5.97;4.05;;;;;;;;;;5126934;27;20400;-81
2022/01/07 01:02:47;;;;;;;5.47;4.13;;;;;;;;;;5093626;28;20195;-81
2022/01/07 01:05:13;;;;;;;6.22;4.90;;;;;;;;;;5108665;28;20247;-83
2022/01/07 01:07:40;;;;;;;5.25;4.38;;;;;;;;;;5087809;28;20179;-80
2022/01/07 01:10:07;;;;;;;6.38;4.75;;;;;;;;;;5123576;27;20218;-78
2022/01/07 01:12:34;;;;;;;5.32;3.70;;;;;;;;;;5116915;28;20179;-80
2022/01/07 01:15:00;;;;;;;6.43;4.00;;;;;;;;;;5129085;27;20186;-80
2022/01/07 01:17:26;;;;;;;5.03;3.90;;;;;;;;;;5106820;28;20179;-77
2022/01/07 01:19:52;;;;;;;4.70;3.42;;;;;;;;;;5090957;28;20249;-80
2022/01/07 01:22:18;;;;;;;7.40;3.85;;;;;;;;;;5068618;28;20176;-81
2022/01/07 01:24:44;;;;;;;5.53;4.63;;;;;;;;;;5069835;28;20230;-80
2022/01/07 01:27:10;;;;;;;4.65;4.20;;;;;;;;;;5072051;28;20180;-80
2022/01/07 01:29:36;;;;;;;6.35;4.88;;;;;;;;;;5080614;28;20203;-79
2022/01/07 01:32:02;;;;;;;8.20;4.63;;;;;;;;;;5082397;28;20571;-80
2022/01/07 01:34:28;;;;;;;4.85;3.20;;;;;;;;;;5098992;28;20198;-80
2022/01/07 01:36:54;;;;;;;6.93;4.20;;;;;;;;;;5081838;28;20172;-80
2022/01/07 01:39:20;;;;;;;7.22;4.65;;;;;;;;;;5074658;28;20218;-79
2022/01/07 01:41:47;;;;;;;5.75;3.90;;;;;;;;;;5094946;28;20191;-80
2022/01/07 01:44:13;;;;;;;4.60;3.72;;;;;;;;;;5073250;28;20211;-79
2022/01/07 01:46:39;;;;;;;5.32;3.90;;;;;;;;;;5067992;28;20203;-81
2022/01/07 01:49:05;;;;;;;3.47;2.97;;;;;;;;;;5101397;28;20187;-82
2022/01/07 01:51:31;;;;;;;8.48;3.75;;;;;;;;;;5088322;28;20263;-78
2022/01/07 01:53:57;;;;;;;6.03;3.33;;;;;;;;;;5089022;28;20195;-80
2022/01/07 01:56:23;;;;;;;5.50;3.92;;;;;;;;;;5070528;28;20222;-78
2022/01/07 01:58:49;;;;;;;8.63;4.38;;;;;;;;;;5104731;28;20587;-79
2022/01/07 02:01:15;;;;;;;4.00;3.05;;;;;;;;;;5067866;28;20180;-83
2022/01/07 02:03:41;;;;;;;5.35;3.70;;;;;;;;;;5069772;28;20181;-78
2022/01/07 02:06:07;;;;;;;4.50;2.60;;;;;;;;;;5073157;28;20185;-81
2022/01/07 02:08:36;;;;;;;5.15;3.38;;;;;;;;;;5073582;28;20257;-79
2022/01/07 02:11:02;;;;;;;4.95;2.80;;;;;;;;;;5085767;28;20180;-79
2022/01/07 02:13:28;;;;;;;8.38;5.45;;;;;;;;;;5067372;28;20183;-78
2022/01/07 02:15:54;;;;;;;10.07;3.25;;;;;;;;;;5088496;28;20172;-79
2022/01/07 02:18:21;;;;;;;7.00;4.15;;;;;;;;;;5093152;28;20273;-79
2022/01/07 02:20:48;;;;;;;12.23;3.55;;;;;;;;;;5119192;28;20190;-81
2022/01/07 02:23:14;;;;;;;6.07;2.85;;;;;;;;;;5097256;28;20190;-83
2022/01/07 02:25:40;;;;;;;5.43;3.00;;;;;;;;;;5108278;28;20245;-83
2022/01/07 02:28:06;;;;;;;5.72;3.05;;;;;;;;;;5103779;28;20257;-82
2022/01/07 02:30:32;;;;;;;7.65;3.00;;;;;;;;;;5113007;28;20183;-80
2022/01/07 02:32:58;;;;;;;3.83;3.35;;;;;;;;;;5096522;28;20211;-80
2022/01/07 02:35:27;;;;;;;6.05;3.00;;;;;;;;;;5094555;28;20202;-82
2022/01/07 02:37:53;;;;;;;5.15;2.92;;;;;;;;;;5121576;28;20188;-80
2022/01/07 02:40:19;;;;;;;4.97;2.83;;;;;;;;;;5107767;28;20186;-84
2022/01/07 02:42:45;;;;;;;2.70;2.40;;;;;;;;;;5112300;28;20226;-81
2022/01/07 02:45:13;;;;;;;5.13;2.50;;;;;;;;;;5095988;28;20214;-80
2022/01/07 02:50:14;;;;;;;5.35;3.10;;;;;;;;;;5123212;28;20178;-80
2022/01/07 02:52:40;;;;;;;5.00;2.78;;;;;;;;;;5091538;28;20217;-79
2022/01/07 02:55:06;;;;;;;7.10;3.00;;;;;;;;;;5127864;27;20656;-79
2022/01/07 02:57:32;;;;;;;2.95;2.65;;;;;;;;;;5103797;28;20175;-78
2022/01/07 02:59:58;;;;;;;4.20;2.88;;;;;;;;;;5100889;28;20267;-79
2022/01/07 03:02:24;;;;;;;4.03;2.63;;;;;;;;;;5096248;28;20545;-79
2022/01/07 03:04:50;;;;;;;4.57;2.92;;;;;;;;;;5091916;28;20264;-79
2022/01/07 03:07:16;;;;;;;4.38;2.13;;;;;;;;;;5104412;28;20574;-79
2022/01/07 03:09:42;;;;;;;9.52;2.92;;;;;;;;;;5093729;28;20247;-82
2022/01/07 03:12:08;;;;;;;9.40;3.30;;;;;;;;;;5112080;28;20191;-82
2022/01/07 03:14:34;;;;;;;7.03;2.70;;;;;;;;;;5095899;28;20184;-78
2022/01/07 03:17:00;;;;;;;4.50;2.40;;;;;;;;;;5093734;28;20175;-79
2022/01/07 03:19:26;;;;;;;2.92;2.08;;;;;;;;;;5107154;28;20748;-80
2022/01/07 03:21:52;;;;;;;3.13;2.28;;;;;;;;;;5103915;28;20188;-84
2022/01/07 03:24:18;;;;;;;2.83;2.23;;;;;;;;;;5096015;28;20233;-79
2022/01/07 03:26:44;;;;;;;3.47;2.45;;;;;;;;;;5110603;28;20461;-78
2022/01/07 03:29:10;;;;;;;3.58;2.33;;;;;;;;;;5110464;28;20210;-78
2022/01/07 03:31:36;;;;;;;7.55;3.78;;;;;;;;;;5123707;28;20178;-80
2022/01/07 03:34:03;;;;;;;6.82;2.50;;;;;;;;;;5110750;28;20180;-78
2022/01/07 03:36:29;;;;;;;6.25;2.67;;;;;;;;;;5102008;28;20213;-78
2022/01/07 03:38:56;;;;;;;4.53;2.67;;;;;;;;;;5102394;28;20191;-80
2022/01/07 03:41:22;;;;;;;4.20;2.40;;;;;;;;;;5120945;28;20178;-79
2022/01/07 03:43:48;;;;;;;5.22;2.75;;;;;;;;;;5090319;28;20172;-78
2022/01/07 03:46:15;;;;;;;4.05;2.25;;;;;;;;;;5089624;28;20195;-78
2022/01/07 03:48:40;;;;;;;3.97;2.95;;;;;;;;;;5123634;28;20179;-78
2022/01/07 03:51:06;;;;;;;5.10;3.10;;;;;;;;;;5099069;28;20228;-79
2022/01/07 03:53:32;;;;;;;5.70;2.80;;;;;;;;;;5110947;28;20180;-80
2022/01/07 03:55:58;;;;;;;11.80;2.75;;;;;;;;;;5090933;28;20469;-78
2022/01/07 03:58:24;;;;;;;8.63;3.70;;;;;;;;;;5122191;28;20171;-82
2022/01/07 04:00:50;;;;;;;3.67;2.45;;;;;;;;;;5110242;28;20269;-80
2022/01/07 04:03:17;;;;;;;4.17;2.93;;;;;;;;;;5109021;28;20200;-77
2022/01/07 04:05:43;;;;;;;8.65;2.80;;;;;;;;;;5110249;28;20461;-82
2022/01/07 04:08:10;;;;;;;4.28;2.65;;;;;;;;;;5095745;28;20183;-78
2022/01/07 04:10:37;;;;;;;2.95;1.75;;;;;;;;;;5106860;28;20186;-79
2022/01/07 04:13:03;;;;;;;5.03;3.03;;;;;;;;;;5103624;28;20629;-78
2022/01/07 04:15:30;;;;;;;4.43;2.17;;;;;;;;;;5094772;28;20187;-81
2022/01/07 04:17:56;;;;;;;5.68;3.33;;;;;;;;;;5105841;28;20235;-79
2022/01/07 04:20:26;;;;;;;12.65;2.72;;;;;;;;;;5089999;28;20266;-78
2022/01/07 04:22:53;;;;;;;6.20;2.30;;;;;;;;;;5087959;28;20194;-78
2022/01/07 04:25:20;;;;;;;4.93;2.47;;;;;;;;;;5069251;28;20200;-77
2022/01/07 04:27:54;;;;;;;6.43;2.50;;;;;;;;;;5088857;28;20222;-78
2022/01/07 04:30:21;;;;;;;4.60;1.77;;;;;;;;;;5089725;28;20211;-77
2022/01/07 04:32:48;;;;;;;3.75;2.67;;;;;;;;;;5092533;28;20188;-82
2022/01/07 04:35:15;;;;;;;13.18;2.40;;;;;;;;;;5092237;28;20272;-78
2022/01/07 04:37:41;;;;;;;4.45;2.53;;;;;;;;;;5068114;28;20183;-77
2022/01/07 04:40:09;;;;;;;2.75;1.73;;;;;;;;;;5069952;28;20176;-79
2022/01/07 04:42:35;;;;;;;2.63;1.80;;;;;;;;;;5085636;28;20190;-79
2022/01/07 04:45:01;;;;;;;3.40;1.70;;;;;;;;;;5082093;28;20298;-76
2022/01/07 04:47:27;;;;;;;4.80;2.42;;;;;;;;;;5073159;28;20597;-78
2022/01/07 04:49:53;;;;;;;7.35;2.67;;;;;;;;;;5086764;28;20184;-80
2022/01/07 04:52:21;;;;;;;7.40;2.08;;;;;;;;;;5087406;28;20180;-77
2022/01/07 04:54:47;;;;;;;5.53;2.60;;;;;;;;;;5105988;28;20202;-77
2022/01/07 04:57:13;;;;;;;4.28;1.80;;;;;;;;;;5091155;28;20188;-78
2022/01/07 04:59:39;;;;;;;3.20;1.80;;;;;;;;;;5085873;28;20227;-78
2022/01/07 05:02:06;;;;;;;6.10;2.50;;;;;;;;;;5088775;28;20180;-77
2022/01/07 05:04:32;;;;;;;4.47;2.50;;;;;;;;;;5108121;28;20275;-77
2022/01/07 05:06:58;;;;;;;5.10;1.92;;;;;;;;;;5098027;28;20198;-78
2022/01/07 05:09:24;;;;;;;5.88;2.60;;;;;;;;;;5076722;28;20264;-82
2022/01/07 05:11:51;;;;;;;6.70;2.65;;;;;;;;;;5080787;28;20184;-77
2022/01/07 05:14:18;;;;;;;4.35;1.70;;;;;;;;;;5099788;28;20183;-77
2022/01/07 05:16:44;;;;;;;4.88;2.80;;;;;;;;;;5066859;28;20264;-76
2022/01/07 05:19:11;;;;;;;3.38;1.70;;;;;;;;;;5086919;28;20224;-77
2022/01/07 05:21:37;;;;;;;3.42;2.60;;;;;;;;;;5089459;28;20181;-77
2022/01/07 05:24:03;;;;;;;3.70;1.70;;;;;;;;;;5082972;28;20211;-77
2022/01/07 05:26:29;;;;;;;6.60;2.30;;;;;;;;;;5080237;28;20247;-77
2022/01/07 05:28:55;;;;;;;3.25;1.77;;;;;;;;;;5100360;28;20189;-77
2022/01/07 05:31:22;;;;;;;8.43;2.17;;;;;;;;;;5086584;28;20201;-77
2022/01/07 05:33:49;;;;;;;5.00;2.20;;;;;;;;;;5092496;28;20187;-78
2022/01/07 05:36:15;;;;;;;5.32;1.90;;;;;;;;;;5088608;28;20191;-77
2022/01/07 05:38:41;;;;;;;2.75;1.50;;;;;;;;;;5088480;28;20217;-77
2022/01/07 05:41:07;;;;;;;6.40;2.00;;;;;;;;;;5088302;28;20583;-80
2022/01/07 05:43:33;;;;;;;4.93;1.88;;;;;;;;;;5083691;28;20429;-77
2022/01/07 05:45:59;;;;;;;4.15;1.77;;;;;;;;;;5099253;28;20195;-76
2022/01/07 05:48:25;;;;;;;8.85;2.10;;;;;;;;;;5087687;28;20188;-77
2022/01/07 05:50:51;;;;;;;3.53;2.17;;;;;;;;;;5086383;28;20187;-77
2022/01/07 05:53:17;;;;;;;4.20;1.40;;;;;;;;;;5090922;28;20240;-78
2022/01/07 05:55:43;;;;;;;3.50;1.90;;;;;;;;;;5099079;28;20187;-76
2022/01/07 05:58:09;;;;;;;2.10;1.90;;;;;;;;;;5105752;28;20224;-76
2022/01/07 06:00:35;;;;;;;6.93;1.67;;;;;;;;;;5087109;28;20180;-76
2022/01/07 06:03:01;;;;;;;2.65;1.55;;;;;;;;;;5087502;28;20192;-77
2022/01/07 06:05:27;;;;;;;4.60;2.30;;;;;;;;;;5091402;28;20206;-77
2022/01/07 06:07:53;;;;;;;2.50;1.90;;;;;;;;;;5085984;28;20418;-77
2022/01/07 06:10:19;;;;;;;3.67;1.98;;;;;;;;;;5083777;28;20173;-75
2022/01/07 06:12:45;;;;;;;2.75;2.03;;;;;;;;;;5093543;28;20195;-77
2022/01/07 06:15:11;;;;;;;4.57;2.20;;;;;;;;;;5094496;28;20215;-78
2022/01/07 06:17:37;;;;;;;6.10;1.73;;;;;;;;;;5089783;28;20493;-78
2022/01/07 06:20:04;;;;;;;4.32;1.98;;;;;;;;;;5107706;28;20191;-78
2022/01/07 06:22:30;;;;;;;8.43;2.15;;;;;;;;;;5104923;28;20184;-77
2022/01/07 06:24:56;;;;;;;3.47;2.13;;;;;;;;;;5103054;28;20196;-77
2022/01/07 06:27:22;;;;;;;4.13;1.98;;;;;;;;;;5090307;28;20187;-77
2022/01/07 06:29:48;;;;;;;7.38;2.60;;;;;;;;;;5092167;28;20180;-77
2022/01/07 06:32:14;;;;;;;4.65;1.83;;;;;;;;;;5095485;28;20183;-77
2022/01/07 06:34:40;;;;;;;2.47;1.95;;;;;;;;;;5117341;28;20198;-77
2022/01/07 06:37:06;;;;;;;2.92;1.80;;;;;;;;;;5107249;28;20205;-78
2022/01/07 06:39:32;;;;;;;3.45;2.13;;;;;;;;;;5092533;28;20200;-77
2022/01/07 06:42:00;;;;;;;5.47;2.20;;;;;;;;;;5093285;28;20184;-76
2022/01/07 06:44:26;;;;;;;4.97;2.10;;;;;;;;;;5108900;28;20263;-77
2022/01/07 06:46:53;;;;;;;5.50;2.08;;;;;;;;;;5105452;28;20195;-76
2022/01/07 06:49:19;;;;;;;4.32;2.00;;;;;;;;;;5105788;28;20187;-77
2022/01/07 06:51:45;;;;;;;3.28;1.30;;;;;;;;;;5107607;28;20700;-77
2022/01/07 06:54:11;;;;;;;5.38;3.33;;;;;;;;;;5104950;28;20196;-77
2022/01/07 06:56:41;;;;;;;2.28;2.08;;;;;;;;;;5112302;28;20224;-81
2022/01/07 06:59:07;;;;;;;7.85;2.42;;;;;;;;;;5105550;28;20195;-77
2022/01/07 07:01:33;;;;;;;2.78;1.85;;;;;;;;;;5121304;28;20191;-76
2022/01/07 07:03:59;;;;;;;3.80;2.00;;;;;;;;;;5123409;27;20187;-76
2022/01/07 07:06:25;;;;;;;4.20;2.38;;;;;;;;;;5113764;27;20209;-76
2022/01/07 07:08:51;;;;;;;2.58;1.65;;;;;;;;;;5106466;28;20243;-77
2022/01/07 07:11:17;;;;;;;5.35;2.15;;;;;;;;;;5106706;28;20186;-75
2022/01/07 07:13:43;;;;;;;3.78;2.55;;;;;;;;;;5109649;28;20191;-76
2022/01/07 07:16:09;;;;;;;5.50;2.40;;;;;;;;;;5106920;28;20178;-77
2022/01/07 07:18:35;;;;;;;5.15;2.13;;;;;;;;;;5091638;28;20761;-77
2022/01/07 07:21:01;;;;;;;5.30;2.60;;;;;;;;;;5097487;28;20199;-77
2022/01/07 07:23:27;;;;;;;4.32;2.33;;;;;;;;;;5099910;28;20219;-77
2022/01/07 07:25:53;;;;;;;3.17;2.05;;;;;;;;;;5085205;28;20273;-78
2022/01/07 07:28:20;;;;;;;6.20;2.83;;;;;;;;;;5097212;28;20164;-78
2022/01/07 07:30:47;;;;;;;4.50;2.58;;;;;;;;;;5100366;28;20190;-79
2022/01/07 07:38:29;;;;;;;7.72;2.72;;;;;;;;;;5096738;28;20186;-81
2022/01/07 07:40:55;;;;;;;8.27;2.00;;;;;;;;;;5071547;28;20192;-81
2022/01/07 07:43:21;;;;;;;4.47;2.28;;;;;;;;;;5084690;28;20433;-81
2022/01/07 07:45:47;;;;;;;4.37;2.20;;;;;;;;;;5090215;28;20200;-81
2022/01/07 07:48:13;;;;;;;3.43;2.03;;;;;;;;;;5086361;28;20472;-83
2022/01/07 07:50:39;;;;;;;6.22;2.30;;;;;;;;;;5084148;28;20446;-84
2022/01/07 07:53:05;;;;;;;6.70;1.73;;;;;;;;;;5100118;28;20184;-83
2022/01/07 07:55:31;;;;;;;2.78;1.88;;;;;;;;;;5104083;28;20462;-83
2022/01/07 07:57:57;;;;;;;2.58;1.20;;;;;;;;;;5091507;28;20171;-83
2022/01/07 08:00:23;;;;;;;10.38;2.15;;;;;;;;;;5088141;28;20210;-85
2022/01/07 08:02:49;;;;;;;3.65;1.52;;;;;;;;;;5083643;28;20194;-83
2022/01/07 08:05:15;;;;;;;6.43;2.03;;;;;;;;;;5083524;28;20204;-83
2022/01/07 08:07:41;;;;;;;1.58;1.13;;;;;;;;;;5088461;28;20175;-84
2022/01/07 08:10:08;;;;;;;4.28;1.50;;;;;;;;;;5073786;28;20200;-84
2022/01/07 08:12:53;;;;;;;2.60;1.30;;;;;;;;;;5101791;28;20628;-85
2022/01/07 08:18:04;;;;;;;4.18;1.80;;;;;;;;;;5097666;28;20381;-87
2022/01/07 08:20:30;;;;;;;3.22;1.27;;;;;;;;;;5079302;28;20280;-84
2022/01/07 08:22:56;;;;;;;2.45;1.50;;;;;;;;;;5098020;28;20211;-86
2022/01/07 08:25:22;;;;;;;2.55;1.05;;;;;;;;;;5087650;28;20218;-83
2022/01/07 08:27:50;;;;;;;2.35;1.13;;;;;;;;;;5116035;28;20194;-85
2022/01/07 08:30:24;;;;;;;3.75;1.40;;;;;;;;;;5093523;28;20254;-86
2022/01/07 08:35:38;;;;;;;3.15;1.20;;;;;;;;;;5095618;28;20209;-87
2022/01/07 08:38:04;;;;;;;5.65;1.33;;;;;;;;;;5101357;28;20206;-85
2022/01/07 08:40:30;;;;;;;2.83;0.93;;;;;;;;;;5095259;28;20253;-86
2022/01/07 08:42:56;;;;;;;6.50;1.20;;;;;;;;;;5104594;28;20176;-87
2022/01/07 08:45:25;;;;;;;2.70;1.00;;;;;;;;;;5095412;28;20207;-89
2022/01/07 08:47:51;;;;;;;1.77;0.95;;;;;;;;;;5079878;28;20184;-84
2022/01/07 08:50:17;;;;;;;1.30;1.20;;;;;;;;;;5077255;28;20195;-88
2022/01/07 08:52:44;;;;;;;2.60;1.30;;;;;;;;;;5086686;28;20190;-83
2022/01/07 08:55:10;;;;;;;4.82;0.93;;;;;;;;;;5087054;28;20532;-84
2022/01/07 08:57:36;;;;;;;3.95;1.30;;;;;;;;;;5098154;28;20743;-84
2022/01/07 09:00:03;;;;;;;2.13;1.65;;;;;;;;;;5097986;28;20192;-86
2022/01/07 09:02:29;;;;;;;3.92;1.25;;;;;;;;;;5078965;28;20182;-83
2022/01/07 09:04:56;;;;;;;3.13;1.40;;;;;;;;;;5088817;28;20202;-85
2022/01/07 09:07:22;;;;;;;3.50;1.55;;;;;;;;;;5086179;28;20414;-83
2022/01/07 09:09:48;;;;;;;3.10;1.50;;;;;;;;;;5072653;28;20287;-83
2022/01/07 09:12:14;;;;;;;4.72;1.33;;;;;;;;;;5094675;28;20247;-84
2022/01/07 09:14:40;;;;;;;5.10;1.48;;;;;;;;;;5094552;28;20191;-83
2022/01/07 09:17:06;;;;;;;2.03;1.02;;;;;;;;;;5100421;28;20471;-84
2022/01/07 09:19:32;;;;;;;3.30;1.20;;;;;;;;;;5082836;28;20597;-82
2022/01/07 09:21:58;;;;;;;6.40;2.10;;;;;;;;;;5114602;28;20266;-83
2022/01/07 09:24:29;;;;;;;3.92;1.30;;;;;;;;;;5086194;28;20231;-82
2022/01/07 09:26:55;;;;;;;1.95;1.02;;;;;;;;;;5095461;28;20650;-83
2022/01/07 09:29:23;;;;;;;2.75;1.50;;;;;;;;;;5099388;28;20214;-83
2022/01/07 09:31:49;;;;;;;2.20;1.45;;;;;;;;;;5085786;28;20182;-84
2022/01/07 09:34:15;;;;;;;3.55;1.10;;;;;;;;;;5088832;28;20188;-86
2022/01/07 09:36:41;;;;;;;2.85;1.10;;;;;;;;;;5078858;28;20198;-83
2022/01/07 09:39:07;;;;;;;1.95;1.08;;;;;;;;;;5091765;28;20192;-83
2022/01/07 09:41:33;;;;;;;2.35;1.10;;;;;;;;;;5088831;28;20184;-82
2022/01/07 09:44:01;;;;;;;3.28;1.40;;;;;;;;;;5069312;28;20186;-83
2022/01/07 09:46:27;;;;;;;2.60;1.20;;;;;;;;;;5098351;28;20635;-82
2022/01/07 09:48:53;;;;;;;3.42;1.05;;;;;;;;;;5088041;28;20557;-82
2022/01/07 09:51:19;;;;;;;1.83;1.45;;;;;;;;;;5088650;28;20535;-82
2022/01/07 09:53:45;;;;;;;2.53;1.00;;;;;;;;;;5088439;28;20280;-83
2022/01/07 09:56:11;;;;;;;1.33;1.05;;;;;;;;;;5088436;28;20207;-82
2022/01/07 09:58:37;;;;;;;2.55;0.80;;;;;;;;;;5085792;28;20525;-82
2022/01/07 10:01:04;;;;;;;1.40;1.20;;;;;;;;;;5064841;28;20203;-84
2022/01/07 10:03:38;;;;;;;1.38;1.02;;;;;;;;;;5084501;28;20278;-82
2022/01/07 10:06:15;;;;;;;1.60;1.20;;;;;;;;;;5077508;28;20204;-81
2022/01/07 10:08:41;;;;;;;2.10;1.00;;;;;;;;;;5077255;28;20504;-81
2022/01/07 10:11:11;;;;;;;3.78;1.00;;;;;;;;;;5084589;28;20186;-84
2022/01/07 10:13:38;;;;;;;3.88;0.82;;;;;;;;;;5066662;28;20167;-83
2022/01/07 10:16:15;;;;;;;1.85;0.90;;;;;;;;;;5086134;28;20187;-82
2022/01/07 10:18:41;;;;;;;2.25;1.48;;;;;;;;;;5097483;28;20210;-82
2022/01/07 10:21:08;;;;;;;2.38;0.95;;;;;;;;;;5080096;28;20187;-84
2022/01/07 10:23:34;;;;;;;1.75;0.93;;;;;;;;;;5096658;28;20187;-83
2022/01/07 10:26:00;;;;;;;6.30;0.95;;;;;;;;;;5087115;28;20381;-81
2022/01/07 10:28:32;;;;;;;2.25;1.00;;;;;;;;;;5084892;28;20179;-82
2022/01/07 10:31:02;;;;;;;1.98;0.80;;;;;;;;;;5065254;28;20191;-80
2022/01/07 10:33:29;;;;;;;2.53;1.23;;;;;;;;;;5088541;28;20240;-80
2022/01/07 10:36:02;;;;;;;0.93;0.75;;;;;;;;;;5074736;28;20283;-79
2022/01/07 10:38:29;;;;;;;3.17;1.25;;;;;;;;;;5100710;28;20183;-80
2022/01/07 10:40:59;;;;;;;2.90;1.00;;;;;;;;;;5072513;28;20187;-80
2022/01/07 10:43:32;;;;;;;1.55;0.90;;;;;;;;;;5103889;28;20201;-82
2022/01/07 10:45:58;;;;;;;1.25;1.15;;;;;;;;;;5089613;28;20210;-83
2022/01/07 10:48:35;;;;;;;4.25;1.45;;;;;;;;;;5081891;28;20183;-84
2022/01/07 10:51:05;;;;;;;4.28;1.30;;;;;;;;;;5094799;28;20187;-79
2022/01/07 10:53:31;;;;;;;3.65;1.13;;;;;;;;;;5076364;28;20180;-78
2022/01/07 10:55:57;;;;;;;4.00;1.00;;;;;;;;;;5073413;28;20187;-79
2022/01/07 10:58:23;;;;;;;1.38;1.00;;;;;;;;;;5087400;28;20277;-80
2022/01/07 11:00:49;;;;;;;3.03;1.00;;;;;;;;;;5090036;28;20177;-79
2022/01/07 11:03:15;;;;;;;2.57;1.00;;;;;;;;;;5080572;28;20184;-81
2022/01/07 11:05:42;;;;;;;1.93;0.77;;;;;;;;;;5097351;28;20469;-80
2022/01/07 11:08:08;;;;;;;1.98;0.90;;;;;;;;;;5075816;28;20426;-80
2022/01/07 11:10:36;;;;;;;2.65;1.00;;;;;;;;;;5086902;28;20248;-87
2022/01/07 11:13:02;;;;;;;4.35;1.20;;;;;;;;;;5089239;28;20184;-80
2022/01/07 11:15:28;;;;;;;3.05;1.20;;;;;;;;;;5075554;28;20649;-81
2022/01/07 11:17:54;;;;;;;2.85;1.42;;;;;;;;;;5097437;27;20231;-81
2022/01/07 11:20:24;;;;;;;3.13;1.55;;;;;;;;;;5115208;28;20211;-79
2022/01/07 11:22:50;;;;;;;2.88;1.40;;;;;;;;;;5108622;28;20413;-78
2022/01/07 11:25:16;;;;;;;3.13;1.50;;;;;;;;;;5106399;28;20263;-78
2022/01/07 11:27:54;;;;;;;4.20;1.10;;;;;;;;;;5125008;27;20203;-79
2022/01/07 11:30:23;;;;;;;0.75;0.75;;;;;;;;;;5113055;27;20183;-80
2022/01/07 11:32:53;;;;;;;5.85;1.70;;;;;;;;;;5101192;28;20179;-78
2022/01/07 11:35:19;;;;;;;4.10;1.70;;;;;;;;;;5119366;28;20192;-80
2022/01/07 11:37:45;;;;;;;3.90;1.20;;;;;;;;;;5121231;28;20179;-83
2022/01/07 11:40:27;;;;;;;4.00;1.37;;;;;;;;;;5116007;27;20193;-81
2022/01/07 11:42:53;;;;;;;2.75;1.40;;;;;;;;;;5106251;28;20822;-79
2022/01/07 11:45:32;;;;;;;3.40;1.30;;;;;;;;;;5115348;27;20229;-78
2022/01/07 11:47:59;;;;;;;5.18;1.40;;;;;;;;;;5095389;28;20433;-78
2022/01/07 11:50:25;;;;;;;2.88;1.70;;;;;;;;;;5095058;28;20175;-78
2022/01/07 11:52:57;;;;;;;3.05;1.17;;;;;;;;;;5108352;28;20183;-79
2022/01/07 11:55:29;;;;;;;3.00;1.27;;;;;;;;;;5122971;28;20174;-83
2022/01/07 11:57:57;;;;;;;5.47;1.25;;;;;;;;;;5116302;28;20212;-78
2022/01/07 12:00:42;;;;;;;2.50;1.35;;;;;;;;;;5105080;27;20183;-78
2022/01/07 12:03:08;;;;;;;3.00;1.60;;;;;;;;;;5112727;28;20198;-78
2022/01/07 12:05:34;;;;;;;5.03;1.58;;;;;;;;;;5097404;28;20203;-78
2022/01/07 12:08:01;;;;;;;6.78;3.05;;;;;;;;;;5099737;28;20184;-80
2022/01/07 12:10:26;;;;;;;3.03;1.33;;;;;;;;;;5109656;27;20174;-80
2022/01/07 12:12:59;;;;;;;3.92;1.70;;;;;;;;;;5106196;27;20166;-77
2022/01/07 12:15:25;;;;;;;4.30;1.10;;;;;;;;;;5116853;27;20175;-77
2022/01/07 12:17:51;;;;;;;6.53;1.90;;;;;;;;;;5103278;27;20217;-78
2022/01/07 12:20:20;;;;;;;2.78;1.75;;;;;;;;;;5108809;28;20246;-78
2022/01/07 12:22:47;;;;;;;5.78;1.67;;;;;;;;;;5117985;28;20187;-76
2022/01/07 12:25:13;;;;;;;5.65;1.75;;;;;;;;;;5107761;28;20346;-77
2022/01/07 12:27:39;;;;;;;1.80;1.23;;;;;;;;;;5101859;28;20175;-77
2022/01/07 12:30:05;;;;;;;2.03;1.40;;;;;;;;;;5118997;28;20512;-78
2022/01/07 12:32:34;;;;;;;2.78;1.25;;;;;;;;;;5116538;28;20504;-77
2022/01/07 12:35:00;;;;;;;3.50;1.45;;;;;;;;;;5096639;28;20215;-77
2022/01/07 12:37:26;;;;;;;3.50;1.20;;;;;;;;;;5107963;28;20175;-77
2022/01/07 12:39:53;;;;;;;3.45;1.60;;;;;;;;;;5103509;27;20182;-76
2022/01/07 12:42:19;;;;;;;3.58;1.90;;;;;;;;;;5105977;28;20275;-78
2022/01/07 12:44:52;;;;;;;1.23;0.90;;;;;;;;;;5112925;28;20204;-78
2022/01/07 12:47:18;;;;;;;3.40;1.15;;;;;;;;;;5107937;28;20214;-78
2022/01/07 12:49:44;;;;;;;3.95;1.38;;;;;;;;;;5105380;28;20213;-78
2022/01/07 12:52:17;;;;;;;5.80;1.50;;;;;;;;;;5140236;27;20158;-77
2022/01/07 12:55:01;;;;;;;3.22;1.38;;;;;;;;;;5109639;28;20230;-77
2022/01/07 12:57:27;;;;;;;4.43;1.10;;;;;;;;;;5112484;27;20179;-77
2022/01/07 13:00:06;;;;;;;1.40;0.90;;;;;;;;;;5093728;28;20180;-80
2022/01/07 13:02:33;;;;;;;2.28;1.30;;;;;;;;;;5097412;28;20187;-80
2022/01/07 13:05:14;;;;;;;2.58;0.98;;;;;;;;;;5106899;28;20224;-80
2022/01/07 13:07:50;;;;;;;4.10;1.30;;;;;;;;;;5112095;28;20182;-80
2022/01/07 13:10:20;;;;;;;2.45;1.00;;;;;;;;;;5101331;28;20174;-79
2022/01/07 13:13:09;;;;;;;3.40;1.15;;;;;;;;;;5091407;28;20640;-79
2022/01/07 13:15:37;;;;;;;3.40;1.00;;;;;;;;;;5103783;28;20180;-77
2022/01/07 13:18:22;;;;;;;3.90;1.20;;;;;;;;;;5096628;28;20227;-82
2022/01/07 13:20:48;;;;;;;1.85;0.85;;;;;;;;;;5093275;28;20202;-78
2022/01/07 13:23:15;;;;;;;1.30;1.00;;;;;;;;;;5101923;28;20175;-78
2022/01/07 13:25:41;;;;;;;3.00;1.48;;;;;;;;;;5104103;28;20313;-78
2022/01/07 13:28:07;;;;;;;1.25;1.00;;;;;;;;;;5137969;27;20171;-86
2022/01/07 13:30:35;;;;;;;2.70;1.27;;;;;;;;;;5105353;28;20207;-80
2022/01/07 13:33:11;;;;;;;1.92;0.90;;;;;;;;;;5100574;28;20179;-80
2022/01/07 13:35:38;;;;;;;3.80;1.30;;;;;;;;;;5097882;28;20194;-79
2022/01/07 13:38:11;;;;;;;2.03;1.10;;;;;;;;;;5088805;28;20180;-79
2022/01/07 13:40:37;;;;;;;1.25;1.08;;;;;;;;;;5107368;27;20564;-78
2022/01/07 13:43:10;;;;;;;1.75;0.90;;;;;;;;;;5126358;27;20597;-80
2022/01/07 13:45:37;;;;;;;2.70;1.20;;;;;;;;;;5097254;28;20207;-79
2022/01/07 13:48:10;;;;;;;1.23;0.95;;;;;;;;;;5113159;28;20214;-78
2022/01/07 13:50:38;;;;;;;2.65;0.90;;;;;;;;;;5097444;28;20183;-80
2022/01/07 13:53:18;;;;;;;1.55;1.20;;;;;;;;;;5093611;28;20171;-79
2022/01/07 13:55:45;;;;;;;4.30;0.95;;;;;;;;;;5107982;28;20226;-79
2022/01/07 13:58:13;;;;;;;2.38;0.80;;;;;;;;;;5107437;28;20182;-78
2022/01/07 14:00:40;;;;;;;2.13;1.30;;;;;;;;;;5098312;28;20188;-85
2022/01/07 14:03:07;;;;;;;6.50;1.55;;;;;;;;;;5118564;28;20674;-79
2022/01/07 14:05:34;;;;;;;1.67;0.88;;;;;;;;;;5117644;28;20233;-81
2022/01/07 14:08:00;;;;;;;3.08;1.10;;;;;;;;;;5090621;28;20190;-78
2022/01/07 14:10:31;;;;;;;2.25;0.98;;;;;;;;;;5090812;28;20178;-79
2022/01/07 14:13:17;;;;;;;4.30;1.30;;;;;;;;;;5092716;28;20172;-81
2022/01/07 14:15:43;;;;;;;7.05;1.92;;;;;;;;;;5104844;28;20184;-80
2022/01/07 14:18:11;;;;;;;2.25;1.58;;;;;;;;;;5097135;28;20211;-78
2022/01/07 14:20:49;;;;;;;3.40;1.17;;;;;;;;;;5100336;28;20254;-82
2022/01/07 14:23:19;;;;;;;1.58;1.48;;;;;;;;;;5121211;28;20246;-80
2022/01/07 14:25:46;;;;;;;1.75;0.80;;;;;;;;;;5106421;28;20196;-81
2022/01/07 14:28:13;;;;;;;2.45;0.98;;;;;;;;;;5111311;28;20183;-80
2022/01/07 14:30:40;;;;;;;2.78;1.00;;;;;;;;;;5107071;28;20196;-80
2022/01/07 14:33:06;;;;;;;3.88;1.95;;;;;;;;;;5102522;27;20184;-79
2022/01/07 14:35:32;;;;;;;2.78;1.35;;;;;;;;;;5116002;28;20207;-79
2022/01/07 14:37:58;;;;;;;2.72;0.90;;;;;;;;;;5123343;28;20183;-79
2022/01/07 14:40:24;;;;;;;3.33;1.50;;;;;;;;;;5092118;28;20175;-78
2022/01/07 14:42:50;;;;;;;1.52;1.00;;;;;;;;;;5104996;27;20182;-77
2022/01/07 14:45:16;;;;;;;3.00;1.45;;;;;;;;;;5107857;28;20218;-81
2022/01/07 14:47:43;;;;;;;5.60;1.10;;;;;;;;;;5103236;28;20193;-79
2022/01/07 14:50:11;;;;;;;3.15;1.20;;;;;;;;;;5108030;28;20176;-78
2022/01/07 14:52:37;;;;;;;4.20;1.40;;;;;;;;;;5103495;28;20190;-78
2022/01/07 14:55:03;;;;;;;1.33;0.90;;;;;;;;;;5111955;28;20191;-81
2022/01/07 14:57:29;;;;;;;2.45;0.90;;;;;;;;;;5107218;28;20216;-81